sensor_id;sensor_type;location;lat;lon;timestamp;P1;durP1;ratioP1;P2;durP2;ratioP2
15285;SDS011;7744;52.172;10.668;2023-03-11T00:00:36;14.20;;;11.43;;
15285;SDS011;7744;52.172;10.668;2023-03-11T00:03:04;12.90;;;10.83;;
15285;SDS011;7744;52.172;10.668;2023-03-11T00:05:31;13.87;;;10.83;;
15285;SDS011;7744;52.172;10.668;2023-03-11T00:07:59;14.17;;;10.83;;
15285;SDS011;7744;52.172;10.668;2023-03-11T00:10:33;13.93;;;10.93;;
15285;SDS011;7744;52.172;10.668;2023-03-11T00:13:01;15.20;;;11.93;;
15285;SDS011;7744;52.172;10.668;2023-03-11T00:15:28;15.73;;;12.60;;
15285;SDS011;7744;52.172;10.668;2023-03-11T00:17:55;14.20;;;11.43;;
15285;SDS011;7744;52.172;10.668;2023-03-11T00:20:25;15.53;;;12.60;;
15285;SDS011;7744;52.172;10.668;2023-03-11T00:22:53;14.57;;;11.83;;
15285;SDS011;7744;52.172;10.668;2023-03-11T00:25:20;15.90;;;11.83;;
15285;SDS011;7744;52.172;10.668;2023-03-11T00:27:46;14.00;;;11.43;;
15285;SDS011;7744;52.172;10.668;2023-03-11T00:30:13;14.03;;;11.37;;
15285;SDS011;7744;52.172;10.668;2023-03-11T00:32:39;14.67;;;11.53;;
15285;SDS011;7744;52.172;10.668;2023-03-11T00:35:05;14.80;;;12.20;;
15285;SDS011;7744;52.172;10.668;2023-03-11T00:37:32;14.50;;;12.03;;
15285;SDS011;7744;52.172;10.668;2023-03-11T00:39:58;14.73;;;12.13;;
15285;SDS011;7744;52.172;10.668;2023-03-11T00:42:24;13.87;;;10.93;;
15285;SDS011;7744;52.172;10.668;2023-03-11T00:44:50;16.70;;;11.93;;
15285;SDS011;7744;52.172;10.668;2023-03-11T00:47:15;12.47;;;10.70;;
15285;SDS011;7744;52.172;10.668;2023-03-11T00:49:41;15.17;;;12.10;;
15285;SDS011;7744;52.172;10.668;2023-03-11T00:52:07;14.93;;;12.50;;
15285;SDS011;7744;52.172;10.668;2023-03-11T00:54:32;16.43;;;13.23;;
15285;SDS011;7744;52.172;10.668;2023-03-11T00:56:58;15.87;;;12.40;;
15285;SDS011;7744;52.172;10.668;2023-03-11T00:59:23;15.83;;;12.97;;
15285;SDS011;7744;52.172;10.668;2023-03-11T01:01:49;18.23;;;12.83;;
15285;SDS011;7744;52.172;10.668;2023-03-11T01:04:15;18.50;;;14.00;;
15285;SDS011;7744;52.172;10.668;2023-03-11T01:06:40;17.83;;;13.83;;
15285;SDS011;7744;52.172;10.668;2023-03-11T01:09:06;17.87;;;13.97;;
15285;SDS011;7744;52.172;10.668;2023-03-11T01:11:31;16.77;;;13.37;;
15285;SDS011;7744;52.172;10.668;2023-03-11T01:13:57;18.23;;;14.43;;
15285;SDS011;7744;52.172;10.668;2023-03-11T01:16:23;19.10;;;14.57;;
15285;SDS011;7744;52.172;10.668;2023-03-11T01:18:48;18.10;;;13.53;;
15285;SDS011;7744;52.172;10.668;2023-03-11T01:21:14;17.93;;;14.77;;
15285;SDS011;7744;52.172;10.668;2023-03-11T01:23:39;17.77;;;13.57;;
15285;SDS011;7744;52.172;10.668;2023-03-11T01:26:06;18.07;;;14.67;;
15285;SDS011;7744;52.172;10.668;2023-03-11T01:28:33;17.57;;;13.57;;
15285;SDS011;7744;52.172;10.668;2023-03-11T01:30:59;18.67;;;14.27;;
15285;SDS011;7744;52.172;10.668;2023-03-11T01:33:25;19.07;;;15.10;;
15285;SDS011;7744;52.172;10.668;2023-03-11T01:35:50;16.80;;;13.67;;
15285;SDS011;7744;52.172;10.668;2023-03-11T01:38:16;17.03;;;13.43;;
15285;SDS011;7744;52.172;10.668;2023-03-11T01:40:43;17.73;;;14.63;;
15285;SDS011;7744;52.172;10.668;2023-03-11T01:48:31;17.30;;;14.53;;
15285;SDS011;7744;52.172;10.668;2023-03-11T01:50:57;17.40;;;14.20;;
15285;SDS011;7744;52.172;10.668;2023-03-11T01:53:23;18.23;;;14.67;;
15285;SDS011;7744;52.172;10.668;2023-03-11T01:55:49;18.67;;;15.10;;
15285;SDS011;7744;52.172;10.668;2023-03-11T01:58:16;18.43;;;14.60;;
15285;SDS011;7744;52.172;10.668;2023-03-11T02:00:46;18.67;;;15.27;;
15285;SDS011;7744;52.172;10.668;2023-03-11T02:03:23;20.33;;;15.87;;
15285;SDS011;7744;52.172;10.668;2023-03-11T02:05:52;19.87;;;16.33;;
15285;SDS011;7744;52.172;10.668;2023-03-11T02:08:20;21.60;;;16.30;;
15285;SDS011;7744;52.172;10.668;2023-03-11T02:10:46;20.83;;;16.27;;
15285;SDS011;7744;52.172;10.668;2023-03-11T02:13:14;20.93;;;15.87;;
15285;SDS011;7744;52.172;10.668;2023-03-11T02:15:40;20.87;;;16.07;;
15285;SDS011;7744;52.172;10.668;2023-03-11T02:18:06;21.10;;;16.20;;
15285;SDS011;7744;52.172;10.668;2023-03-11T02:23:42;19.80;;;15.23;;
15285;SDS011;7744;52.172;10.668;2023-03-11T02:26:33;19.67;;;14.53;;
15285;SDS011;7744;52.172;10.668;2023-03-11T02:29:16;18.10;;;14.57;;
15285;SDS011;7744;52.172;10.668;2023-03-11T02:31:44;17.90;;;13.63;;
15285;SDS011;7744;52.172;10.668;2023-03-11T02:34:12;19.30;;;15.25;;
15285;SDS011;7744;52.172;10.668;2023-03-11T02:36:48;17.07;;;13.57;;
15285;SDS011;7744;52.172;10.668;2023-03-11T02:39:14;18.20;;;14.07;;
15285;SDS011;7744;52.172;10.668;2023-03-11T02:41:40;17.80;;;13.37;;
15285;SDS011;7744;52.172;10.668;2023-03-11T02:44:10;16.87;;;13.13;;
15285;SDS011;7744;52.172;10.668;2023-03-11T02:46:39;18.77;;;13.63;;
15285;SDS011;7744;52.172;10.668;2023-03-11T02:49:06;17.63;;;13.70;;
15285;SDS011;7744;52.172;10.668;2023-03-11T02:51:32;17.67;;;14.10;;
15285;SDS011;7744;52.172;10.668;2023-03-11T02:53:58;16.67;;;12.73;;
15285;SDS011;7744;52.172;10.668;2023-03-11T02:56:26;15.77;;;12.13;;
15285;SDS011;7744;52.172;10.668;2023-03-11T02:58:52;14.87;;;11.37;;
15285;SDS011;7744;52.172;10.668;2023-03-11T03:01:18;15.17;;;12.10;;
15285;SDS011;7744;52.172;10.668;2023-03-11T03:03:43;14.97;;;11.07;;
15285;SDS011;7744;52.172;10.668;2023-03-11T03:06:09;15.23;;;12.43;;
15285;SDS011;7744;52.172;10.668;2023-03-11T03:08:35;14.83;;;11.53;;
15285;SDS011;7744;52.172;10.668;2023-03-11T03:11:00;14.03;;;11.43;;
15285;SDS011;7744;52.172;10.668;2023-03-11T03:13:27;14.13;;;10.97;;
15285;SDS011;7744;52.172;10.668;2023-03-11T03:15:53;13.67;;;10.63;;
15285;SDS011;7744;52.172;10.668;2023-03-11T03:18:19;11.77;;;9.90;;
15285;SDS011;7744;52.172;10.668;2023-03-11T03:20:45;12.73;;;9.33;;
15285;SDS011;7744;52.172;10.668;2023-03-11T03:23:10;11.10;;;9.40;;
15285;SDS011;7744;52.172;10.668;2023-03-11T03:25:36;11.20;;;9.37;;
15285;SDS011;7744;52.172;10.668;2023-03-11T03:28:02;11.13;;;8.47;;
15285;SDS011;7744;52.172;10.668;2023-03-11T03:30:28;10.63;;;8.23;;
15285;SDS011;7744;52.172;10.668;2023-03-11T03:32:54;8.70;;;7.67;;
15285;SDS011;7744;52.172;10.668;2023-03-11T03:35:19;10.53;;;7.77;;
15285;SDS011;7744;52.172;10.668;2023-03-11T03:37:45;11.10;;;7.30;;
15285;SDS011;7744;52.172;10.668;2023-03-11T03:40:11;10.70;;;7.83;;
15285;SDS011;7744;52.172;10.668;2023-03-11T03:42:38;9.47;;;6.97;;
15285;SDS011;7744;52.172;10.668;2023-03-11T03:45:04;8.13;;;6.27;;
15285;SDS011;7744;52.172;10.668;2023-03-11T03:47:32;9.60;;;7.47;;
15285;SDS011;7744;52.172;10.668;2023-03-11T03:49:58;8.10;;;6.73;;
15285;SDS011;7744;52.172;10.668;2023-03-11T03:52:24;10.30;;;7.03;;
15285;SDS011;7744;52.172;10.668;2023-03-11T03:54:49;8.73;;;7.00;;
15285;SDS011;7744;52.172;10.668;2023-03-11T03:57:15;10.07;;;7.07;;
15285;SDS011;7744;52.172;10.668;2023-03-11T03:59:41;7.43;;;6.43;;
15285;SDS011;7744;52.172;10.668;2023-03-11T04:02:07;9.77;;;6.97;;
15285;SDS011;7744;52.172;10.668;2023-03-11T04:04:32;13.13;;;7.43;;
15285;SDS011;7744;52.172;10.668;2023-03-11T04:06:58;7.97;;;7.17;;
15285;SDS011;7744;52.172;10.668;2023-03-11T04:09:24;10.10;;;7.27;;
15285;SDS011;7744;52.172;10.668;2023-03-11T04:11:50;9.37;;;7.53;;
15285;SDS011;7744;52.172;10.668;2023-03-11T04:14:15;10.20;;;7.50;;
15285;SDS011;7744;52.172;10.668;2023-03-11T04:16:41;8.60;;;7.57;;
15285;SDS011;7744;52.172;10.668;2023-03-11T04:19:06;11.97;;;8.67;;
15285;SDS011;7744;52.172;10.668;2023-03-11T04:21:32;9.20;;;7.57;;
15285;SDS011;7744;52.172;10.668;2023-03-11T04:23:58;7.80;;;6.97;;
15285;SDS011;7744;52.172;10.668;2023-03-11T04:26:24;8.10;;;6.83;;
15285;SDS011;7744;52.172;10.668;2023-03-11T04:28:49;9.33;;;7.20;;
15285;SDS011;7744;52.172;10.668;2023-03-11T04:31:15;10.50;;;7.03;;
15285;SDS011;7744;52.172;10.668;2023-03-11T04:33:41;9.40;;;6.80;;
15285;SDS011;7744;52.172;10.668;2023-03-11T04:36:07;8.63;;;6.77;;
15285;SDS011;7744;52.172;10.668;2023-03-11T04:38:33;9.17;;;6.27;;
15285;SDS011;7744;52.172;10.668;2023-03-11T04:41:00;6.37;;;5.73;;
15285;SDS011;7744;52.172;10.668;2023-03-11T04:43:26;6.60;;;5.77;;
15285;SDS011;7744;52.172;10.668;2023-03-11T04:45:51;7.90;;;5.50;;
15285;SDS011;7744;52.172;10.668;2023-03-11T04:48:17;9.13;;;6.13;;
15285;SDS011;7744;52.172;10.668;2023-03-11T04:50:43;8.40;;;6.17;;
15285;SDS011;7744;52.172;10.668;2023-03-11T04:53:08;6.63;;;5.80;;
15285;SDS011;7744;52.172;10.668;2023-03-11T04:55:34;7.23;;;6.07;;
15285;SDS011;7744;52.172;10.668;2023-03-11T04:57:59;8.50;;;6.20;;
15285;SDS011;7744;52.172;10.668;2023-03-11T05:00:25;7.43;;;6.60;;
15285;SDS011;7744;52.172;10.668;2023-03-11T05:02:50;8.37;;;6.40;;
15285;SDS011;7744;52.172;10.668;2023-03-11T05:05:16;8.87;;;6.77;;
15285;SDS011;7744;52.172;10.668;2023-03-11T05:07:45;7.30;;;6.00;;
15285;SDS011;7744;52.172;10.668;2023-03-11T05:10:11;8.57;;;6.27;;
15285;SDS011;7744;52.172;10.668;2023-03-11T05:12:37;9.27;;;7.00;;
15285;SDS011;7744;52.172;10.668;2023-03-11T05:15:02;8.23;;;6.87;;
15285;SDS011;7744;52.172;10.668;2023-03-11T05:17:28;9.90;;;7.20;;
15285;SDS011;7744;52.172;10.668;2023-03-11T05:19:54;8.87;;;6.43;;
15285;SDS011;7744;52.172;10.668;2023-03-11T05:22:20;10.83;;;7.53;;
15285;SDS011;7744;52.172;10.668;2023-03-11T05:24:46;11.23;;;8.00;;
15285;SDS011;7744;52.172;10.668;2023-03-11T05:27:12;12.20;;;7.60;;
15285;SDS011;7744;52.172;10.668;2023-03-11T05:29:40;9.50;;;7.13;;
15285;SDS011;7744;52.172;10.668;2023-03-11T05:32:06;10.53;;;6.73;;
15285;SDS011;7744;52.172;10.668;2023-03-11T05:34:32;8.87;;;6.40;;
15285;SDS011;7744;52.172;10.668;2023-03-11T05:36:57;9.73;;;6.03;;
15285;SDS011;7744;52.172;10.668;2023-03-11T05:39:23;6.40;;;5.73;;
15285;SDS011;7744;52.172;10.668;2023-03-11T05:41:48;6.67;;;5.47;;
15285;SDS011;7744;52.172;10.668;2023-03-11T05:44:14;9.07;;;4.83;;
15285;SDS011;7744;52.172;10.668;2023-03-11T05:46:39;6.10;;;4.57;;
15285;SDS011;7744;52.172;10.668;2023-03-11T05:49:05;7.57;;;5.10;;
15285;SDS011;7744;52.172;10.668;2023-03-11T05:51:31;8.20;;;5.03;;
15285;SDS011;7744;52.172;10.668;2023-03-11T05:53:56;8.70;;;6.17;;
15285;SDS011;7744;52.172;10.668;2023-03-11T05:56:22;10.37;;;5.83;;
15285;SDS011;7744;52.172;10.668;2023-03-11T05:58:48;6.20;;;5.57;;
15285;SDS011;7744;52.172;10.668;2023-03-11T06:01:15;6.90;;;5.63;;
15285;SDS011;7744;52.172;10.668;2023-03-11T06:03:41;7.03;;;5.37;;
15285;SDS011;7744;52.172;10.668;2023-03-11T06:06:08;10.50;;;6.00;;
15285;SDS011;7744;52.172;10.668;2023-03-11T06:08:35;8.67;;;5.83;;
15285;SDS011;7744;52.172;10.668;2023-03-11T06:11:04;10.13;;;6.47;;
15285;SDS011;7744;52.172;10.668;2023-03-11T06:13:31;7.63;;;6.27;;
15285;SDS011;7744;52.172;10.668;2023-03-11T06:15:57;9.77;;;6.60;;
15285;SDS011;7744;52.172;10.668;2023-03-11T06:18:22;8.47;;;6.43;;
15285;SDS011;7744;52.172;10.668;2023-03-11T06:20:50;8.20;;;6.40;;
15285;SDS011;7744;52.172;10.668;2023-03-11T06:23:16;9.43;;;6.50;;
15285;SDS011;7744;52.172;10.668;2023-03-11T06:25:42;6.60;;;5.57;;
15285;SDS011;7744;52.172;10.668;2023-03-11T06:28:07;10.37;;;6.50;;
15285;SDS011;7744;52.172;10.668;2023-03-11T06:30:33;9.80;;;7.13;;
15285;SDS011;7744;52.172;10.668;2023-03-11T06:32:59;9.07;;;6.80;;
15285;SDS011;7744;52.172;10.668;2023-03-11T06:35:25;9.67;;;7.30;;
15285;SDS011;7744;52.172;10.668;2023-03-11T06:37:50;8.00;;;6.20;;
15285;SDS011;7744;52.172;10.668;2023-03-11T06:40:16;8.30;;;6.13;;
15285;SDS011;7744;52.172;10.668;2023-03-11T06:42:44;9.63;;;6.87;;
15285;SDS011;7744;52.172;10.668;2023-03-11T06:45:11;11.07;;;6.87;;
15285;SDS011;7744;52.172;10.668;2023-03-11T06:47:36;9.03;;;5.87;;
15285;SDS011;7744;52.172;10.668;2023-03-11T06:50:02;7.47;;;6.20;;
15285;SDS011;7744;52.172;10.668;2023-03-11T06:52:31;8.43;;;6.27;;
15285;SDS011;7744;52.172;10.668;2023-03-11T06:54:56;11.03;;;6.77;;
15285;SDS011;7744;52.172;10.668;2023-03-11T06:57:22;9.07;;;6.33;;
15285;SDS011;7744;52.172;10.668;2023-03-11T06:59:48;8.77;;;6.30;;
15285;SDS011;7744;52.172;10.668;2023-03-11T07:02:13;8.67;;;5.37;;
15285;SDS011;7744;52.172;10.668;2023-03-11T07:04:39;8.10;;;5.20;;
15285;SDS011;7744;52.172;10.668;2023-03-11T07:07:04;7.53;;;5.40;;
15285;SDS011;7744;52.172;10.668;2023-03-11T07:09:30;9.93;;;5.80;;
15285;SDS011;7744;52.172;10.668;2023-03-11T07:11:55;7.60;;;5.30;;
15285;SDS011;7744;52.172;10.668;2023-03-11T07:14:21;8.63;;;4.73;;
15285;SDS011;7744;52.172;10.668;2023-03-11T07:16:47;6.13;;;4.27;;
15285;SDS011;7744;52.172;10.668;2023-03-11T07:19:13;7.40;;;4.83;;
15285;SDS011;7744;52.172;10.668;2023-03-11T07:21:38;5.90;;;4.40;;
15285;SDS011;7744;52.172;10.668;2023-03-11T07:24:04;8.10;;;5.20;;
15285;SDS011;7744;52.172;10.668;2023-03-11T07:26:31;8.37;;;4.87;;
15285;SDS011;7744;52.172;10.668;2023-03-11T07:28:58;7.87;;;4.97;;
15285;SDS011;7744;52.172;10.668;2023-03-11T07:31:25;9.40;;;4.60;;
15285;SDS011;7744;52.172;10.668;2023-03-11T07:33:56;7.73;;;4.77;;
15285;SDS011;7744;52.172;10.668;2023-03-11T07:36:24;5.80;;;4.60;;
15285;SDS011;7744;52.172;10.668;2023-03-11T07:38:54;8.10;;;4.47;;
15285;SDS011;7744;52.172;10.668;2023-03-11T07:41:24;9.00;;;4.63;;
15285;SDS011;7744;52.172;10.668;2023-03-11T07:43:54;6.83;;;4.80;;
15285;SDS011;7744;52.172;10.668;2023-03-11T07:46:21;11.87;;;5.67;;
15285;SDS011;7744;52.172;10.668;2023-03-11T07:48:48;8.77;;;5.90;;
15285;SDS011;7744;52.172;10.668;2023-03-11T07:51:19;10.00;;;5.50;;
15285;SDS011;7744;52.172;10.668;2023-03-11T07:53:46;9.57;;;6.20;;
15285;SDS011;7744;52.172;10.668;2023-03-11T07:56:13;11.67;;;6.20;;
15285;SDS011;7744;52.172;10.668;2023-03-11T07:58:40;8.63;;;6.70;;
15285;SDS011;7744;52.172;10.668;2023-03-11T08:01:13;9.73;;;6.73;;
15285;SDS011;7744;52.172;10.668;2023-03-11T08:03:44;11.57;;;7.70;;
15285;SDS011;7744;52.172;10.668;2023-03-11T08:06:18;14.00;;;8.00;;
15285;SDS011;7744;52.172;10.668;2023-03-11T08:08:46;14.90;;;8.40;;
15285;SDS011;7744;52.172;10.668;2023-03-11T08:11:12;10.43;;;7.70;;
15285;SDS011;7744;52.172;10.668;2023-03-11T08:13:39;13.03;;;7.90;;
15285;SDS011;7744;52.172;10.668;2023-03-11T08:16:05;10.33;;;7.77;;
15285;SDS011;7744;52.172;10.668;2023-03-11T08:18:32;13.13;;;7.60;;
15285;SDS011;7744;52.172;10.668;2023-03-11T08:21:02;10.23;;;7.97;;
15285;SDS011;7744;52.172;10.668;2023-03-11T08:23:32;8.37;;;6.67;;
15285;SDS011;7744;52.172;10.668;2023-03-11T08:26:01;12.53;;;7.00;;
15285;SDS011;7744;52.172;10.668;2023-03-11T08:28:27;11.67;;;6.57;;
15285;SDS011;7744;52.172;10.668;2023-03-11T08:30:53;10.17;;;6.30;;
15285;SDS011;7744;52.172;10.668;2023-03-11T08:33:18;8.47;;;5.30;;
15285;SDS011;7744;52.172;10.668;2023-03-11T08:35:44;5.97;;;4.97;;
15285;SDS011;7744;52.172;10.668;2023-03-11T08:38:10;6.97;;;5.40;;
15285;SDS011;7744;52.172;10.668;2023-03-11T08:40:35;8.73;;;6.07;;
15285;SDS011;7744;52.172;10.668;2023-03-11T08:43:01;6.30;;;5.37;;
15285;SDS011;7744;52.172;10.668;2023-03-11T08:45:26;7.73;;;5.80;;
15285;SDS011;7744;52.172;10.668;2023-03-11T08:47:52;9.57;;;6.70;;
15285;SDS011;7744;52.172;10.668;2023-03-11T08:50:18;14.80;;;7.70;;
15285;SDS011;7744;52.172;10.668;2023-03-11T08:52:44;22.43;;;14.20;;
15285;SDS011;7744;52.172;10.668;2023-03-11T08:55:11;13.97;;;9.63;;
15285;SDS011;7744;52.172;10.668;2023-03-11T08:57:39;26.13;;;18.83;;
15285;SDS011;7744;52.172;10.668;2023-03-11T09:00:06;13.57;;;8.73;;
15285;SDS011;7744;52.172;10.668;2023-03-11T09:02:33;13.17;;;8.90;;
15285;SDS011;7744;52.172;10.668;2023-03-11T09:04:58;9.00;;;5.90;;
15285;SDS011;7744;52.172;10.668;2023-03-11T09:07:24;10.67;;;6.20;;
15285;SDS011;7744;52.172;10.668;2023-03-11T09:09:50;10.03;;;5.87;;
15285;SDS011;7744;52.172;10.668;2023-03-11T09:12:16;9.20;;;6.10;;
15285;SDS011;7744;52.172;10.668;2023-03-11T09:14:42;7.90;;;6.13;;
15285;SDS011;7744;52.172;10.668;2023-03-11T09:17:08;7.83;;;6.07;;
15285;SDS011;7744;52.172;10.668;2023-03-11T09:19:36;10.53;;;6.63;;
15285;SDS011;7744;52.172;10.668;2023-03-11T09:22:03;9.70;;;6.97;;
15285;SDS011;7744;52.172;10.668;2023-03-11T09:24:31;8.27;;;5.53;;
15285;SDS011;7744;52.172;10.668;2023-03-11T09:26:58;7.33;;;6.17;;
15285;SDS011;7744;52.172;10.668;2023-03-11T09:29:24;8.23;;;5.83;;
15285;SDS011;7744;52.172;10.668;2023-03-11T09:31:50;7.17;;;5.93;;
15285;SDS011;7744;52.172;10.668;2023-03-11T09:34:17;8.37;;;5.90;;
15285;SDS011;7744;52.172;10.668;2023-03-11T09:36:43;8.60;;;6.00;;
15285;SDS011;7744;52.172;10.668;2023-03-11T09:39:09;8.80;;;5.70;;
15285;SDS011;7744;52.172;10.668;2023-03-11T09:49:58;7.47;;;5.00;;
15285;SDS011;7744;52.172;10.668;2023-03-11T09:52:36;7.90;;;5.13;;
15285;SDS011;7744;52.172;10.668;2023-03-11T09:55:29;5.47;;;4.47;;
15285;SDS011;7744;52.172;10.668;2023-03-11T09:57:56;7.50;;;4.70;;
15285;SDS011;7744;52.172;10.668;2023-03-11T10:00:25;7.70;;;4.20;;
15285;SDS011;7744;52.172;10.668;2023-03-11T10:02:51;6.70;;;4.60;;
15285;SDS011;7744;52.172;10.668;2023-03-11T10:05:27;6.33;;;4.60;;
15285;SDS011;7744;52.172;10.668;2023-03-11T10:08:01;7.37;;;4.50;;
15285;SDS011;7744;52.172;10.668;2023-03-11T10:10:49;6.60;;;4.33;;
15285;SDS011;7744;52.172;10.668;2023-03-11T10:16:13;7.63;;;4.43;;
15285;SDS011;7744;52.172;10.668;2023-03-11T10:27:28;6.57;;;5.30;;
15285;SDS011;7744;52.172;10.668;2023-03-11T10:35:56;5.23;;;4.33;;
15285;SDS011;7744;52.172;10.668;2023-03-11T10:38:34;6.00;;;5.23;;
15285;SDS011;7744;52.172;10.668;2023-03-11T10:41:05;6.53;;;5.03;;
15285;SDS011;7744;52.172;10.668;2023-03-11T10:43:42;5.83;;;4.80;;
15285;SDS011;7744;52.172;10.668;2023-03-11T10:46:17;9.30;;;4.77;;
15285;SDS011;7744;52.172;10.668;2023-03-11T10:48:46;6.33;;;4.40;;
15285;SDS011;7744;52.172;10.668;2023-03-11T10:51:16;4.87;;;4.37;;
15285;SDS011;7744;52.172;10.668;2023-03-11T10:53:48;8.17;;;4.77;;
15285;SDS011;7744;52.172;10.668;2023-03-11T10:56:23;7.17;;;4.90;;
15285;SDS011;7744;52.172;10.668;2023-03-11T10:58:53;4.80;;;4.00;;
15285;SDS011;7744;52.172;10.668;2023-03-11T11:01:19;5.90;;;4.27;;
15285;SDS011;7744;52.172;10.668;2023-03-11T11:03:47;11.37;;;8.67;;
15285;SDS011;7744;52.172;10.668;2023-03-11T11:06:18;6.83;;;5.17;;
15285;SDS011;7744;52.172;10.668;2023-03-11T11:08:45;10.07;;;6.27;;
15285;SDS011;7744;52.172;10.668;2023-03-11T11:11:21;8.50;;;5.20;;
15285;SDS011;7744;52.172;10.668;2023-03-11T11:13:55;9.73;;;5.60;;
15285;SDS011;7744;52.172;10.668;2023-03-11T11:16:21;7.30;;;5.13;;
15285;SDS011;7744;52.172;10.668;2023-03-11T11:18:48;5.83;;;4.70;;
15285;SDS011;7744;52.172;10.668;2023-03-11T11:21:29;5.50;;;4.60;;
15285;SDS011;7744;52.172;10.668;2023-03-11T11:27:03;5.83;;;4.27;;
15285;SDS011;7744;52.172;10.668;2023-03-11T11:29:41;5.77;;;4.30;;
15285;SDS011;7744;52.172;10.668;2023-03-11T11:32:17;8.40;;;4.40;;
15285;SDS011;7744;52.172;10.668;2023-03-11T11:37:26;5.57;;;3.47;;
15285;SDS011;7744;52.172;10.668;2023-03-11T11:42:59;5.60;;;3.37;;
15285;SDS011;7744;52.172;10.668;2023-03-11T11:48:06;7.03;;;3.63;;
15285;SDS011;7744;52.172;10.668;2023-03-11T11:50:43;6.20;;;3.43;;
15285;SDS011;7744;52.172;10.668;2023-03-11T11:53:30;5.97;;;4.17;;
15285;SDS011;7744;52.172;10.668;2023-03-11T11:56:07;6.93;;;3.97;;
15285;SDS011;7744;52.172;10.668;2023-03-11T11:58:33;7.17;;;4.20;;
15285;SDS011;7744;52.172;10.668;2023-03-11T12:01:15;5.10;;;3.20;;
15285;SDS011;7744;52.172;10.668;2023-03-11T12:03:48;6.90;;;3.50;;
15285;SDS011;7744;52.172;10.668;2023-03-11T12:07:06;6.43;;;3.67;;
15285;SDS011;7744;52.172;10.668;2023-03-11T12:17:20;4.83;;;3.33;;
15285;SDS011;7744;52.172;10.668;2023-03-11T12:25:30;5.20;;;2.97;;
15285;SDS011;7744;52.172;10.668;2023-03-11T12:30:34;5.60;;;3.30;;
15285;SDS011;7744;52.172;10.668;2023-03-11T12:33:13;3.80;;;3.10;;
15285;SDS011;7744;52.172;10.668;2023-03-11T12:35:55;3.87;;;2.97;;
15285;SDS011;7744;52.172;10.668;2023-03-11T12:38:38;4.93;;;2.23;;
15285;SDS011;7744;52.172;10.668;2023-03-11T12:46:12;3.93;;;2.70;;
15285;SDS011;7744;52.172;10.668;2023-03-11T12:48:48;6.20;;;2.13;;
15285;SDS011;7744;52.172;10.668;2023-03-11T12:56:49;8.00;;;3.23;;
15285;SDS011;7744;52.172;10.668;2023-03-11T13:10:41;6.20;;;2.53;;
15285;SDS011;7744;52.172;10.668;2023-03-11T13:15:55;4.27;;;2.20;;
15285;SDS011;7744;52.172;10.668;2023-03-11T13:18:28;6.13;;;2.57;;
15285;SDS011;7744;52.172;10.668;2023-03-11T13:21:00;5.00;;;2.50;;
15285;SDS011;7744;52.172;10.668;2023-03-11T13:23:28;4.93;;;1.73;;
15285;SDS011;7744;52.172;10.668;2023-03-11T13:28:42;5.63;;;2.13;;
15285;SDS011;7744;52.172;10.668;2023-03-11T13:34:03;5.57;;;2.00;;
15285;SDS011;7744;52.172;10.668;2023-03-11T13:39:25;5.73;;;2.43;;
15285;SDS011;7744;52.172;10.668;2023-03-11T13:42:16;7.27;;;2.33;;
15285;SDS011;7744;52.172;10.668;2023-03-11T13:44:55;5.37;;;2.43;;
15285;SDS011;7744;52.172;10.668;2023-03-11T13:47:22;5.90;;;2.40;;
15285;SDS011;7744;52.172;10.668;2023-03-11T13:50:04;6.43;;;2.40;;
15285;SDS011;7744;52.172;10.668;2023-03-11T13:52:34;4.30;;;2.00;;
15285;SDS011;7744;52.172;10.668;2023-03-11T13:55:07;5.93;;;2.23;;
15285;SDS011;7744;52.172;10.668;2023-03-11T13:57:40;6.87;;;1.97;;
15285;SDS011;7744;52.172;10.668;2023-03-11T14:00:26;4.57;;;2.33;;
15285;SDS011;7744;52.172;10.668;2023-03-11T14:02:54;5.00;;;1.87;;
15285;SDS011;7744;52.172;10.668;2023-03-11T14:05:34;5.03;;;2.10;;
15285;SDS011;7744;52.172;10.668;2023-03-11T14:10:58;4.03;;;1.90;;
15285;SDS011;7744;52.172;10.668;2023-03-11T14:13:30;7.20;;;2.90;;
15285;SDS011;7744;52.172;10.668;2023-03-11T14:18:28;3.90;;;1.90;;
15285;SDS011;7744;52.172;10.668;2023-03-11T14:20:58;4.97;;;1.80;;
15285;SDS011;7744;52.172;10.668;2023-03-11T14:23:26;2.93;;;1.90;;
15285;SDS011;7744;52.172;10.668;2023-03-11T14:25:58;5.70;;;1.70;;
15285;SDS011;7744;52.172;10.668;2023-03-11T14:28:26;4.43;;;1.63;;
15285;SDS011;7744;52.172;10.668;2023-03-11T14:30:55;4.90;;;1.77;;
15285;SDS011;7744;52.172;10.668;2023-03-11T14:33:22;6.80;;;1.70;;
15285;SDS011;7744;52.172;10.668;2023-03-11T14:35:54;5.57;;;1.50;;
15285;SDS011;7744;52.172;10.668;2023-03-11T14:38:24;6.80;;;1.80;;
15285;SDS011;7744;52.172;10.668;2023-03-11T14:40:59;4.40;;;1.47;;
15285;SDS011;7744;52.172;10.668;2023-03-11T14:43:33;3.77;;;1.47;;
15285;SDS011;7744;52.172;10.668;2023-03-11T14:46:04;5.13;;;1.70;;
15285;SDS011;7744;52.172;10.668;2023-03-11T14:48:37;9.37;;;2.53;;
15285;SDS011;7744;52.172;10.668;2023-03-11T14:51:09;2.40;;;1.37;;
15285;SDS011;7744;52.172;10.668;2023-03-11T14:53:43;3.87;;;1.23;;
15285;SDS011;7744;52.172;10.668;2023-03-11T14:56:18;2.73;;;1.33;;
15285;SDS011;7744;52.172;10.668;2023-03-11T14:58:50;3.13;;;1.50;;
15285;SDS011;7744;52.172;10.668;2023-03-11T15:03:57;6.77;;;1.70;;
15285;SDS011;7744;52.172;10.668;2023-03-11T15:06:29;3.03;;;1.20;;
15285;SDS011;7744;52.172;10.668;2023-03-11T15:11:33;4.00;;;1.60;;
15285;SDS011;7744;52.172;10.668;2023-03-11T15:14:26;5.83;;;2.20;;
15285;SDS011;7744;52.172;10.668;2023-03-11T15:17:08;3.73;;;1.90;;
15285;SDS011;7744;52.172;10.668;2023-03-11T15:19:39;6.43;;;2.43;;
15285;SDS011;7744;52.172;10.668;2023-03-11T15:22:15;4.80;;;2.80;;
15285;SDS011;7744;52.172;10.668;2023-03-11T15:24:48;8.23;;;2.30;;
15285;SDS011;7744;52.172;10.668;2023-03-11T15:27:20;3.63;;;1.70;;
15285;SDS011;7744;52.172;10.668;2023-03-11T15:29:54;4.53;;;1.97;;
15285;SDS011;7744;52.172;10.668;2023-03-11T15:32:25;3.47;;;1.80;;
15285;SDS011;7744;52.172;10.668;2023-03-11T15:35:10;3.77;;;1.53;;
15285;SDS011;7744;52.172;10.668;2023-03-11T15:37:40;4.50;;;1.60;;
15285;SDS011;7744;52.172;10.668;2023-03-11T15:43:20;4.70;;;2.70;;
15285;SDS011;7744;52.172;10.668;2023-03-11T15:45:57;4.50;;;1.63;;
15285;SDS011;7744;52.172;10.668;2023-03-11T15:48:25;2.73;;;1.00;;
15285;SDS011;7744;52.172;10.668;2023-03-11T15:50:53;3.10;;;1.63;;
15285;SDS011;7744;52.172;10.668;2023-03-11T15:53:23;4.73;;;1.50;;
15285;SDS011;7744;52.172;10.668;2023-03-11T15:55:50;2.50;;;1.00;;
15285;SDS011;7744;52.172;10.668;2023-03-11T15:58:18;2.43;;;1.00;;
15285;SDS011;7744;52.172;10.668;2023-03-11T16:00:51;3.37;;;1.00;;
15285;SDS011;7744;52.172;10.668;2023-03-11T16:03:20;2.50;;;0.97;;
15285;SDS011;7744;52.172;10.668;2023-03-11T16:05:46;3.57;;;0.93;;
15285;SDS011;7744;52.172;10.668;2023-03-11T16:08:13;2.37;;;0.73;;
15285;SDS011;7744;52.172;10.668;2023-03-11T16:10:39;2.23;;;1.20;;
15285;SDS011;7744;52.172;10.668;2023-03-11T16:13:05;2.33;;;1.00;;
15285;SDS011;7744;52.172;10.668;2023-03-11T16:15:35;2.63;;;0.70;;
15285;SDS011;7744;52.172;10.668;2023-03-11T16:18:03;4.47;;;0.97;;
15285;SDS011;7744;52.172;10.668;2023-03-11T16:20:45;2.63;;;1.27;;
15285;SDS011;7744;52.172;10.668;2023-03-11T16:23:18;4.13;;;1.30;;
15285;SDS011;7744;52.172;10.668;2023-03-11T16:25:46;3.70;;;2.07;;
15285;SDS011;7744;52.172;10.668;2023-03-11T16:28:13;5.70;;;2.13;;
15285;SDS011;7744;52.172;10.668;2023-03-11T16:30:39;5.37;;;1.63;;
15285;SDS011;7744;52.172;10.668;2023-03-11T16:33:05;4.93;;;1.40;;
15285;SDS011;7744;52.172;10.668;2023-03-11T16:35:31;5.87;;;2.27;;
15285;SDS011;7744;52.172;10.668;2023-03-11T16:37:57;2.10;;;1.20;;